Time;durP1;ratioP1;P1;durP2;ratioP2;P2;SDS_P1;SDS_P2;PMS_P1;PMS_P2;Temp;Humidity;BMP_temperature;BMP_pressure;BME280_temperature;BME280_humidity;BME280_pressure;Samples;Min_cycle;Max_cycle;Signal;HPM_P1;HPM_P2
2022/09/08 10:22:20;;;;;;;;;6.75;3.50;;;;;21.99;78.84;100619.81;5009048;28;45374;-49
2022/09/08 10:24:54;;;;;;;;;5.50;4.50;;;;;22.15;77.78;100624.81;5000456;28;45420;-52
2022/09/08 10:27:50;;;;;;;;;4.00;3.75;;;;;22.34;78.42;100622.41;5012123;28;45548;-50
2022/09/08 10:30:15;;;;;;;;;8.00;2.75;;;;;22.56;75.37;100618.91;5063174;27;45337;-58
2022/09/08 10:33:07;;;;;;;;;4.25;4.25;;;;;22.80;76.18;100618.75;5012355;28;45339;-59
2022/09/08 10:35:44;;;;;;;;;3.25;3.25;;;;;22.94;75.57;100609.72;5025387;28;45530;-61
2022/09/08 10:38:24;;;;;;;;;5.00;2.00;;;;;23.03;74.88;100609.81;5012643;28;45369;-56
2022/09/08 10:40:55;;;;;;;;;3.50;3.00;;;;;23.06;73.13;100609.56;4999873;28;45195;-55
2022/09/08 10:43:39;;;;;;;;;4.25;4.25;;;;;23.20;73.64;100600.47;5013355;27;45446;-56
2022/09/08 10:46:43;;;;;;;;;4.75;1.75;;;;;23.40;73.62;100604.13;5012370;28;45390;-59
2022/09/08 10:49:39;;;;;;;;;5.50;3.00;;;;;23.48;72.43;100604.34;4991294;27;45325;-59
2022/09/08 10:52:16;;;;;;;;;8.50;2.75;;;;;23.57;72.44;100605.41;5000326;28;45503;-69
2022/09/08 10:55:07;;;;;;;;;5.25;3.00;;;;;23.59;72.69;100606.94;5012098;28;46333;-60
2022/09/08 10:58:00;;;;;;;;;8.50;3.00;;;;;23.68;73.21;100605.34;4981313;28;45515;-58
2022/09/08 11:00:39;;;;;;;;;3.50;2.00;;;;;23.79;72.29;100601.78;5000797;28;45354;-64
2022/09/08 11:03:51;;;;;;;;;1.00;0.00;;;;;23.79;70.10;100594.66;5010895;27;45600;-62
2022/09/08 11:06:39;;;;;;;;;5.00;5.00;;;;;23.83;72.01;100597.91;5011787;28;45356;-55
2022/09/08 11:09:45;;;;;;;;;3.00;3.00;;;;;23.85;71.74;100612.72;5011828;27;45268;-56
2022/09/08 11:12:44;;;;;;;;;5.00;3.00;;;;;23.80;69.63;100598.97;4973345;28;45617;-55
2022/09/08 11:15:39;;;;;;;;;6.25;3.50;;;;;23.81;71.93;100608.63;5001686;28;45239;-53
2022/09/08 11:18:29;;;;;;;;;5.00;3.25;;;;;24.13;70.97;100607.69;4998885;28;46466;-53
2022/09/08 11:21:01;;;;;;;;;3.25;2.00;;;;;24.30;69.92;100596.50;4999183;28;45583;-52
2022/09/08 11:24:02;;;;;;;;;2.00;2.00;;;;;24.32;69.79;100599.84;5011738;27;45429;-54
2022/09/08 11:26:52;;;;;;;;;2.00;2.00;;;;;24.40;69.88;100601.81;4981874;28;45707;-55
2022/09/08 11:29:19;;;;;;;;;7.00;4.50;;;;;24.41;67.18;100603.50;5021169;27;46238;-54
2022/09/08 11:32:18;;;;;;;;;5.50;2.00;;;;;24.40;65.47;100607.13;5044948;27;45377;-60
2022/09/08 11:35:03;;;;;;;;;16.50;7.00;;;;;24.40;65.60;100600.00;4989056;28;45458;-60
2022/09/08 11:38:12;;;;;;;;;5.00;4.00;;;;;24.47;64.07;100587.88;4998539;28;45278;-61
2022/09/08 11:40:51;;;;;;;;;4.00;2.25;;;;;24.39;64.18;100600.97;4998078;28;46294;-61
2022/09/08 11:43:31;;;;;;;;;3.25;1.00;;;;;24.40;65.25;100599.16;4997983;28;45378;-61
2022/09/08 11:46:27;;;;;;;;;5.25;5.00;;;;;24.40;62.71;100605.31;4998209;28;45288;-60
2022/09/08 11:49:16;;;;;;;;;5.00;4.00;;;;;24.46;64.61;100602.16;4985569;28;45197;-60
2022/09/08 11:52:03;;;;;;;;;2.25;1.75;;;;;24.46;63.30;100585.38;4998293;27;45377;-62
2022/09/08 11:55:07;;;;;;;;;1.00;0.00;;;;;24.46;63.95;100599.50;4998613;28;45230;-62
2022/09/08 11:58:07;;;;;;;;;3.00;1.00;;;;;24.48;62.70;100572.78;4989319;28;45333;-63
2022/09/08 12:01:05;;;;;;;;;1.00;1.00;;;;;24.45;61.58;100579.22;4988764;28;45354;-63
2022/09/08 12:03:59;;;;;;;;;1.00;0.50;;;;;24.46;61.38;100582.72;4996808;28;47272;-62
2022/09/08 12:06:31;;;;;;;;;1.00;1.00;;;;;24.49;59.96;100577.97;4998217;28;45392;-62
2022/09/08 12:09:25;;;;;;;;;4.00;2.00;;;;;24.44;58.24;100582.84;4998028;28;45298;-62
2022/09/08 12:12:20;;;;;;;;;2.00;1.00;;;;;24.34;60.30;100579.31;4993299;27;45444;-61
2022/09/08 12:15:00;;;;;;;;;2.50;2.00;;;;;24.49;60.83;100577.13;4993632;27;45450;-63
2022/09/08 12:17:52;;;;;;;;;2.00;1.00;;;;;24.70;61.17;100572.56;4999813;28;45666;-63
2022/09/08 12:20:42;;;;;;;;;4.00;1.50;;;;;24.92;59.46;100570.63;4994737;28;45525;-64
2022/09/08 12:23:31;;;;;;;;;3.25;1.00;;;;;24.96;59.81;100570.19;4992622;27;45400;-63
2022/09/08 12:26:09;;;;;;;;;3.00;2.00;;;;;24.98;59.13;100570.91;4997470;28;46183;-60
2022/09/08 12:29:08;;;;;;;;;1.00;1.00;;;;;24.93;57.32;100572.31;4998313;27;45384;-59
2022/09/08 12:31:45;;;;;;;;;2.00;1.00;;;;;24.75;56.88;100565.00;4989059;27;45275;-58
2022/09/08 12:34:22;;;;;;;;;2.25;1.00;;;;;24.77;58.20;100570.19;4997576;28;45218;-58
2022/09/08 12:36:55;;;;;;;;;3.75;1.00;;;;;24.72;57.93;100561.78;4997760;28;45519;-58
2022/09/08 12:39:30;;;;;;;;;3.25;1.50;;;;;24.58;58.64;100565.66;4997874;28;45192;-58
2022/09/08 12:42:29;;;;;;;;;4.00;1.25;;;;;24.53;58.86;100558.09;4997915;28;45489;-60
2022/09/08 12:45:21;;;;;;;;;1.00;1.00;;;;;24.52;58.98;100563.56;4996858;28;45377;-61
2022/09/08 12:48:05;;;;;;;;;2.25;2.00;;;;;24.46;57.78;100564.13;4998115;28;45447;-61
2022/09/08 12:50:52;;;;;;;;;2.75;1.00;;;;;24.34;58.32;100558.06;4985716;27;45432;-61
2022/09/08 12:53:23;;;;;;;;;3.50;2.00;;;;;24.33;59.20;100563.50;4995319;27;45344;-61
2022/09/08 12:56:02;;;;;;;;;4.50;2.75;;;;;24.39;58.83;100552.31;4997741;28;45501;-60
2022/09/08 12:58:41;;;;;;;;;4.75;2.75;;;;;24.48;59.03;100554.19;4997728;28;45340;-58
2022/09/08 13:01:45;;;;;;;;;1.75;1.75;;;;;24.60;56.56;100553.06;4996950;28;45688;-58
2022/09/08 13:04:29;;;;;;;;;6.00;3.75;;;;;24.72;57.06;100553.81;4983072;28;45470;-58
2022/09/08 13:07:39;;;;;;;;;3.00;3.00;;;;;24.82;56.55;100544.00;4998036;28;45413;-59
2022/09/08 13:10:10;;;;;;;;;3.00;3.00;;;;;24.92;57.99;100538.72;4987072;27;46553;-61
2022/09/08 13:13:09;;;;;;;;;2.25;1.00;;;;;24.95;57.51;100539.28;4997508;28;45492;-60
2022/09/08 13:15:43;;;;;;;;;3.00;2.00;;;;;24.99;57.63;100534.53;4997461;28;45203;-61
2022/09/08 13:18:08;;;;;;;;;2.00;2.00;;;;;25.10;58.00;100535.25;5005097;28;45369;-59
2022/09/08 13:20:37;;;;;;;;;1.50;1.25;;;;;25.22;57.29;100541.25;4991457;28;45172;-59
2022/09/08 13:23:28;;;;;;;;;3.25;2.25;;;;;25.25;56.89;100534.84;4989787;27;45895;-58
2022/09/08 13:26:06;;;;;;;;;3.00;1.00;;;;;25.22;56.88;100535.94;4994476;28;45309;-58
2022/09/08 13:28:40;;;;;;;;;2.00;1.00;;;;;25.21;57.19;100538.75;4997728;27;45227;-58
2022/09/08 13:31:21;;;;;;;;;2.75;2.00;;;;;25.25;56.31;100532.19;5026749;27;45639;-59
2022/09/08 13:34:00;;;;;;;;;2.25;2.00;;;;;25.11;56.22;100534.28;4992486;28;45428;-59
2022/09/08 13:36:34;;;;;;;;;3.75;1.00;;;;;24.99;55.77;100537.19;4997116;28;45449;-58
2022/09/08 13:39:18;;;;;;;;;1.50;1.00;;;;;24.88;56.64;100538.16;4994492;28;45903;-58
2022/09/08 13:41:57;;;;;;;;;3.00;1.25;;;;;24.80;56.07;100530.03;4996282;28;46176;-59
2022/09/08 13:44:57;;;;;;;;;2.75;2.00;;;;;24.77;56.86;100531.16;4994472;28;45247;-58
2022/09/08 13:47:31;;;;;;;;;2.00;1.00;;;;;24.92;56.96;100528.94;4994415;28;45354;-58
2022/09/08 13:50:10;;;;;;;;;2.00;1.00;;;;;25.08;55.10;100518.59;4996733;28;45544;-58
2022/09/08 13:53:04;;;;;;;;;1.00;1.00;;;;;25.29;55.64;100525.59;4997270;28;45463;-59
2022/09/08 13:55:32;;;;;;;;;1.25;0.00;;;;;25.45;54.66;100517.88;4995559;28;45289;-61
2022/09/08 13:58:27;;;;;;;;;8.25;5.75;;;;;25.54;53.27;100518.81;4997226;28;45180;-65
2022/09/08 14:01:20;;;;;;;;;1.75;1.00;;;;;25.59;53.03;100522.72;4995692;28;45232;-65
2022/09/08 14:03:56;;;;;;;;;3.00;1.25;;;;;25.64;53.53;100520.47;4987282;28;46361;-65
2022/09/08 14:06:28;;;;;;;;;2.00;1.75;;;;;25.75;52.03;100516.81;4997038;28;45385;-65
2022/09/08 14:08:53;;;;;;;;;1.75;1.25;;;;;25.81;52.57;100516.22;4993818;28;45353;-63
2022/09/08 14:11:37;;;;;;;;;1.75;0.75;;;;;25.85;51.09;100524.78;4995877;28;45537;-57
2022/09/08 14:14:15;;;;;;;;;4.00;1.00;;;;;25.69;52.46;100506.78;4996669;28;47502;-57
2022/09/08 14:16:41;;;;;;;;;3.75;2.00;;;;;25.60;52.65;100507.59;4996994;28;45433;-57
2022/09/08 14:19:06;;;;;;;;;2.00;1.00;;;;;25.53;53.15;100517.97;5006436;28;45235;-61
2022/09/08 14:21:45;;;;;;;;;2.25;1.00;;;;;25.43;53.14;100507.38;4985804;28;45332;-61
2022/09/08 14:24:22;;;;;;;;;1.00;1.00;;;;;25.37;53.40;100509.75;4985515;28;47552;-59
2022/09/08 14:26:56;;;;;;;;;4.50;2.00;;;;;25.34;53.76;100512.69;4995539;28;45408;-59
2022/09/08 14:29:31;;;;;;;;;1.25;0.00;;;;;25.32;53.02;100519.97;5009167;27;45279;-60
2022/09/08 14:32:02;;;;;;;;;1.00;1.00;;;;;25.33;53.26;100517.19;5026652;27;45398;-58
2022/09/08 14:35:04;;;;;;;;;2.75;0.00;;;;;25.41;53.45;100496.00;4995748;28;45595;-58
2022/09/08 14:37:41;;;;;;;;;1.75;1.75;;;;;25.89;53.86;100500.38;4982631;28;45266;-58
2022/09/08 14:40:23;;;;;;;;;0.25;0.00;;;;;26.75;52.62;100500.88;4996636;28;45208;-57
2022/09/08 14:43:18;;;;;;;;;0.75;0.75;;;;;27.70;49.20;100507.34;4996648;28;45519;-57
2022/09/08 14:45:53;;;;;;;;;3.25;1.25;;;;;28.65;50.30;100499.03;4996530;28;45756;-61
2022/09/08 14:48:19;;;;;;;;;0.00;0.00;;;;;29.49;48.33;100492.53;4996142;28;45273;-60
2022/09/08 14:51:01;;;;;;;;;1.00;1.00;;;;;30.02;46.57;100482.16;4991916;27;45732;-60
2022/09/08 14:53:49;;;;;;;;;0.25;0.00;;;;;29.81;46.21;100491.59;4994000;28;45340;-60
2022/09/08 14:56:27;;;;;;;;;1.00;1.00;;;;;29.58;46.40;100501.38;4991712;28;47480;-59
2022/09/08 14:58:58;;;;;;;;;4.00;1.00;;;;;30.21;45.29;100487.09;4993070;28;45303;-57
2022/09/08 15:01:29;;;;;;;;;2.25;0.00;;;;;31.11;46.56;100501.63;4996070;28;45798;-57
2022/09/08 15:04:09;;;;;;;;;0.00;0.00;;;;;31.73;42.68;100489.81;4996065;28;45363;-57
2022/09/08 15:06:49;;;;;;;;;2.00;0.50;;;;;31.02;42.01;100502.69;4996342;28;46172;-58
2022/09/08 15:09:21;;;;;;;;;1.00;1.00;;;;;29.83;43.04;100486.91;4997396;28;45390;-62
2022/09/08 15:11:49;;;;;;;;;1.25;1.00;;;;;29.30;45.25;100491.03;4995844;28;45520;-64
2022/09/08 15:14:46;;;;;;;;;2.25;0.50;;;;;29.50;44.69;100491.53;4996498;28;45327;-58
2022/09/08 15:17:11;;;;;;;;;1.25;1.25;;;;;28.83;44.87;100479.31;4980123;28;46625;-59
2022/09/08 15:19:51;;;;;;;;;1.00;1.00;;;;;28.31;45.41;100477.72;4978194;28;45465;-58
2022/09/08 15:22:41;;;;;;;;;3.50;0.75;;;;;27.93;46.46;100473.72;4972019;28;45402;-58
2022/09/08 15:25:30;;;;;;;;;1.25;1.00;;;;;29.02;47.02;100479.00;4979061;28;45531;-57
2022/09/08 15:27:56;;;;;;;;;4.25;0.00;;;;;28.89;46.87;100481.38;4966875;28;46375;-58
2022/09/08 15:30:25;;;;;;;;;1.00;1.00;;;;;28.21;46.10;100476.16;5027676;28;45435;-59
2022/09/08 15:33:10;;;;;;;;;0.00;0.00;;;;;27.58;47.40;100475.53;4978401;28;45514;-57
2022/09/08 15:35:43;;;;;;;;;1.00;1.00;;;;;27.21;47.91;100472.28;4978585;28;45345;-59
2022/09/08 15:38:31;;;;;;;;;3.75;2.25;;;;;26.85;49.01;100480.31;4978548;28;45476;-57
2022/09/08 15:41:30;;;;;;;;;2.75;1.00;;;;;26.58;49.77;100472.38;4979822;28;45644;-57
2022/09/08 15:44:18;;;;;;;;;0.75;0.00;;;;;26.51;50.38;100461.50;4961512;28;45159;-55
2022/09/08 15:47:02;;;;;;;;;3.25;1.75;;;;;26.61;51.42;100474.75;4977658;28;45361;-56
2022/09/08 15:50:03;;;;;;;;;1.00;1.00;;;;;30.36;50.52;100479.16;4976709;28;46487;-58
2022/09/08 15:53:06;;;;;;;;;1.25;0.25;;;;;31.53;44.11;100464.47;4993364;27;45748;-55
2022/09/08 15:55:53;;;;;;;;;2.25;0.75;;;;;31.12;42.97;100465.69;4966514;28;45432;-57
2022/09/08 15:58:38;;;;;;;;;0.00;0.00;;;;;32.56;43.18;100453.59;4978566;28;45315;-56
2022/09/08 16:01:29;;;;;;;;;3.25;0.00;;;;;33.88;37.23;100461.88;4977911;28;45542;-57
2022/09/08 16:04:11;;;;;;;;;1.50;1.00;;;;;34.59;33.63;100462.31;4978612;28;45390;-59
2022/09/08 16:06:46;;;;;;;;;1.25;0.75;;;;;35.13;32.96;100467.56;4966913;28;45414;-63
2022/09/08 16:09:17;;;;;;;;;1.25;1.00;;;;;35.28;31.24;100468.16;4978749;28;45217;-58
2022/09/08 16:11:52;;;;;;;;;2.25;0.25;;;;;36.92;31.57;100462.28;4978166;28;45325;-61
2022/09/08 16:14:23;;;;;;;;;1.00;0.75;;;;;38.89;30.69;100476.41;4989623;28;45506;-61
2022/09/08 16:17:07;;;;;;;;;0.00;0.00;;;;;41.23;27.21;100481.97;4978823;28;45255;-62
2022/09/08 16:19:35;;;;;;;;;0.00;0.00;;;;;42.37;26.70;100478.50;4978330;28;45473;-61
2022/09/08 16:22:30;;;;;;;;;0.00;0.00;;;;;43.18;24.62;100483.03;4978459;28;45592;-56
2022/09/08 16:25:02;;;;;;;;;0.00;0.00;;;;;43.00;23.64;100493.31;4966833;28;45721;-54
2022/09/08 16:27:50;;;;;;;;;0.00;0.00;;;;;40.10;24.10;100493.84;4977982;28;45333;-55
2022/09/08 16:30:44;;;;;;;;;0.25;0.00;;;;;36.17;26.13;100499.97;5028558;28;45251;-54
2022/09/08 16:33:16;;;;;;;;;0.00;0.00;;;;;33.27;29.18;100489.44;4968713;28;45669;-54
2022/09/08 16:36:00;;;;;;;;;2.00;0.00;;;;;31.44;30.94;100485.22;4978029;28;45379;-55
2022/09/08 16:38:40;;;;;;;;;0.50;0.00;;;;;30.18;32.85;100480.25;4978314;28;45235;-55
2022/09/08 16:41:14;;;;;;;;;0.50;0.00;;;;;29.45;34.43;100488.53;4977378;28;45365;-55
2022/09/08 16:44:08;;;;;;;;;0.00;0.00;;;;;28.86;35.66;100477.19;4976484;28;45920;-55
2022/09/08 16:46:38;;;;;;;;;1.00;0.75;;;;;28.46;36.42;100481.44;4972814;28;45504;-54
2022/09/08 16:49:33;;;;;;;;;2.00;1.00;;;;;28.01;37.22;100479.09;4977961;28;45248;-55
2022/09/08 16:52:23;;;;;;;;;0.75;0.75;;;;;27.38;38.76;100487.41;4977890;28;45253;-54
2022/09/08 16:55:08;;;;;;;;;2.00;1.00;;;;;27.04;39.36;100487.34;5005971;28;46824;-56
2022/09/08 16:57:38;;;;;;;;;2.75;1.00;;;;;26.63;40.15;100483.41;4977829;28;45670;-56
2022/09/08 17:00:16;;;;;;;;;2.00;1.00;;;;;26.27;41.21;100487.88;4977214;28;45271;-55
2022/09/08 17:02:52;;;;;;;;;0.00;0.00;;;;;25.84;42.50;100488.50;4971960;28;45241;-55
2022/09/08 17:05:32;;;;;;;;;1.00;1.00;;;;;25.58;42.85;100498.91;4978212;28;45981;-56
2022/09/08 17:08:16;;;;;;;;;2.75;1.00;;;;;25.40;43.66;100502.31;4977812;28;45468;-56
2022/09/08 17:11:03;;;;;;;;;1.00;1.00;;;;;25.17;44.21;100480.50;4977379;28;45369;-57
2022/09/08 17:13:33;;;;;;;;;3.75;1.00;;;;;24.91;44.39;100499.81;4979184;28;45223;-56
2022/09/08 17:16:18;;;;;;;;;1.00;1.00;;;;;24.70;45.91;100502.63;4975903;28;45465;-65
2022/09/08 17:18:49;;;;;;;;;0.75;0.75;;;;;24.51;46.11;100509.59;4967353;28;45593;-58
2022/09/08 17:21:22;;;;;;;;;0.50;0.50;;;;;24.43;47.17;100513.91;4976491;28;45162;-58
2022/09/08 17:24:24;;;;;;;;;1.25;1.00;;;;;24.30;47.71;100508.84;4975984;28;45513;-62
2022/09/08 17:27:02;;;;;;;;;1.75;1.00;;;;;24.18;49.05;100518.69;4964782;28;46188;-55
